sensor_id;sensor_type;location;lat;lon;timestamp;pressure;altitude;pressure_sealevel;temperature;humidity
36386;BME280;24125;47.482;8.770;2023-04-02T00:02:06;95659.19;;;11.01;76.40
36386;BME280;24125;47.482;8.770;2023-04-02T00:07:46;95655.53;;;11.05;76.35
36386;BME280;24125;47.482;8.770;2023-04-02T00:10:27;95659.38;;;11.08;76.43
36386;BME280;24125;47.482;8.770;2023-04-02T00:13:02;95647.91;;;11.07;76.57
36386;BME280;24125;47.482;8.770;2023-04-02T00:15:35;95658.72;;;11.11;76.47
36386;BME280;24125;47.482;8.770;2023-04-02T00:18:10;95653.03;;;11.12;76.84
36386;BME280;24125;47.482;8.770;2023-04-02T00:20:46;95654.94;;;11.12;76.75
36386;BME280;24125;47.482;8.770;2023-04-02T00:23:20;95661.50;;;11.14;76.91
36386;BME280;24125;47.482;8.770;2023-04-02T00:25:53;95658.38;;;11.12;76.61
36386;BME280;24125;47.482;8.770;2023-04-02T00:28:26;95662.94;;;11.12;76.87
36386;BME280;24125;47.482;8.770;2023-04-02T00:30:58;95663.28;;;11.10;77.18
36386;BME280;24125;47.482;8.770;2023-04-02T00:33:33;95667.06;;;11.09;76.72
36386;BME280;24125;47.482;8.770;2023-04-02T00:36:06;95653.72;;;11.09;76.55
36386;BME280;24125;47.482;8.770;2023-04-02T00:38:39;95664.41;;;11.09;76.91
36386;BME280;24125;47.482;8.770;2023-04-02T00:41:15;95658.59;;;11.07;76.83
36386;BME280;24125;47.482;8.770;2023-04-02T00:43:48;95652.16;;;11.08;77.32
36386;BME280;24125;47.482;8.770;2023-04-02T00:46:22;95663.63;;;11.09;77.43
36386;BME280;24125;47.482;8.770;2023-04-02T00:49:00;95662.50;;;11.10;77.16
36386;BME280;24125;47.482;8.770;2023-04-02T00:51:35;95657.59;;;11.12;77.38
36386;BME280;24125;47.482;8.770;2023-04-02T00:54:08;95655.25;;;11.10;77.35
36386;BME280;24125;47.482;8.770;2023-04-02T00:56:47;95656.81;;;11.11;76.81
36386;BME280;24125;47.482;8.770;2023-04-02T00:59:23;95661.38;;;11.11;76.56
36386;BME280;24125;47.482;8.770;2023-04-02T01:01:58;95655.59;;;11.09;76.68
36386;BME280;24125;47.482;8.770;2023-04-02T01:04:34;95647.91;;;11.07;76.72
36386;BME280;24125;47.482;8.770;2023-04-02T01:07:08;95654.03;;;11.08;76.69
36386;BME280;24125;47.482;8.770;2023-04-02T01:09:45;95654.75;;;11.05;76.13
36386;BME280;24125;47.482;8.770;2023-04-02T01:15:10;95661.88;;;11.01;76.38
36386;BME280;24125;47.482;8.770;2023-04-02T01:17:48;95660.31;;;11.00;76.24
36386;BME280;24125;47.482;8.770;2023-04-02T01:20:44;95662.91;;;10.96;76.61
36386;BME280;24125;47.482;8.770;2023-04-02T01:23:26;95666.75;;;10.98;76.50
36386;BME280;24125;47.482;8.770;2023-04-02T01:26:03;95662.56;;;10.98;76.53
36386;BME280;24125;47.482;8.770;2023-04-02T01:31:40;95668.69;;;10.98;76.87
36386;BME280;24125;47.482;8.770;2023-04-02T01:34:15;95659.91;;;10.98;77.16
36386;BME280;24125;47.482;8.770;2023-04-02T01:36:52;95657.56;;;10.96;77.14
36386;BME280;24125;47.482;8.770;2023-04-02T01:39:34;95655.75;;;11.00;77.28
36386;BME280;24125;47.482;8.770;2023-04-02T01:42:11;95661.88;;;11.01;77.45
36386;BME280;24125;47.482;8.770;2023-04-02T01:44:47;95659.19;;;11.01;77.48
36386;BME280;24125;47.482;8.770;2023-04-02T01:47:22;95656.63;;;11.04;77.28
36386;BME280;24125;47.482;8.770;2023-04-02T01:49:59;95661.19;;;11.04;76.99
36386;BME280;24125;47.482;8.770;2023-04-02T01:52:34;95666.97;;;11.06;76.91
36386;BME280;24125;47.482;8.770;2023-04-02T01:55:08;95669.22;;;11.04;76.61
36386;BME280;24125;47.482;8.770;2023-04-02T01:57:44;95667.66;;;11.03;76.67
36386;BME280;24125;47.482;8.770;2023-04-02T02:00:19;95673.78;;;11.03;76.83
36386;BME280;24125;47.482;8.770;2023-04-02T02:02:54;95668.09;;;11.05;77.18
36386;BME280;24125;47.482;8.770;2023-04-02T02:05:27;95666.22;;;11.05;77.61
36386;BME280;24125;47.482;8.770;2023-04-02T02:08:00;95670.06;;;11.08;77.50
36386;BME280;24125;47.482;8.770;2023-04-02T02:10:34;95676.97;;;11.09;77.34
36386;BME280;24125;47.482;8.770;2023-04-02T02:13:09;95673.19;;;11.10;76.93
36386;BME280;24125;47.482;8.770;2023-04-02T02:15:45;95677.88;;;11.13;77.27
36386;BME280;24125;47.482;8.770;2023-04-02T02:18:20;95677.16;;;11.16;77.80
36386;BME280;24125;47.482;8.770;2023-04-02T02:20:54;95683.72;;;11.18;77.55
36386;BME280;24125;47.482;8.770;2023-04-02T02:23:28;95684.63;;;11.22;77.89
36386;BME280;24125;47.482;8.770;2023-04-02T02:26:03;95678.56;;;11.25;77.63
36386;BME280;24125;47.482;8.770;2023-04-02T02:28:38;95682.47;;;11.28;77.47
36386;BME280;24125;47.482;8.770;2023-04-02T02:31:15;95683.69;;;11.30;77.44
36386;BME280;24125;47.482;8.770;2023-04-02T02:33:51;95686.88;;;11.36;77.96
36386;BME280;24125;47.482;8.770;2023-04-02T02:36:27;95690.00;;;11.38;77.09
36386;BME280;24125;47.482;8.770;2023-04-02T02:39:04;95689.31;;;11.41;77.81
36386;BME280;24125;47.482;8.770;2023-04-02T02:41:43;95693.97;;;11.44;77.35
36386;BME280;24125;47.482;8.770;2023-04-02T02:44:18;95697.09;;;11.46;77.81
36386;BME280;24125;47.482;8.770;2023-04-02T02:46:53;95693.72;;;11.49;77.34
36386;BME280;24125;47.482;8.770;2023-04-02T02:49:30;95704.50;;;11.53;77.54
36386;BME280;24125;47.482;8.770;2023-04-02T02:52:08;95699.59;;;11.55;77.24
36386;BME280;24125;47.482;8.770;2023-04-02T02:54:45;95706.50;;;11.56;77.28
36386;BME280;24125;47.482;8.770;2023-04-02T02:57:19;95702.72;;;11.57;77.12
36386;BME280;24125;47.482;8.770;2023-04-02T02:59:54;95708.47;;;11.59;77.69
36386;BME280;24125;47.482;8.770;2023-04-02T03:02:28;95721.16;;;11.62;76.86
36386;BME280;24125;47.482;8.770;2023-04-02T03:05:02;95723.50;;;11.63;77.13
36386;BME280;24125;47.482;8.770;2023-04-02T03:07:35;95725.84;;;11.65;76.92
36386;BME280;24125;47.482;8.770;2023-04-02T03:10:11;95728.19;;;11.66;76.90
36386;BME280;24125;47.482;8.770;2023-04-02T03:12:48;95733.53;;;11.66;77.64
36386;BME280;24125;47.482;8.770;2023-04-02T03:15:25;95736.19;;;11.66;76.74
36386;BME280;24125;47.482;8.770;2023-04-02T03:18:01;95743.84;;;11.68;77.16
36386;BME280;24125;47.482;8.770;2023-04-02T03:20:36;95738.50;;;11.68;76.57
36386;BME280;24125;47.482;8.770;2023-04-02T03:23:12;95741.97;;;11.68;76.23
36386;BME280;24125;47.482;8.770;2023-04-02T03:25:51;95736.63;;;11.68;76.63
36386;BME280;24125;47.482;8.770;2023-04-02T03:28:28;95740.44;;;11.67;77.45
36386;BME280;24125;47.482;8.770;2023-04-02T03:31:02;95748.09;;;11.69;77.25
36386;BME280;24125;47.482;8.770;2023-04-02T03:33:38;95738.88;;;11.66;76.43
36386;BME280;24125;47.482;8.770;2023-04-02T03:36:14;95741.88;;;11.65;76.37
36386;BME280;24125;47.482;8.770;2023-04-02T03:38:50;95746.44;;;11.64;76.40
36386;BME280;24125;47.482;8.770;2023-04-02T03:41:27;95743.22;;;11.59;75.66
36386;BME280;24125;47.482;8.770;2023-04-02T03:44:03;95742.03;;;11.56;75.69
36386;BME280;24125;47.482;8.770;2023-04-02T03:46:38;95747.63;;;11.51;75.98
36386;BME280;24125;47.482;8.770;2023-04-02T03:49:12;95751.78;;;11.49;75.98
36386;BME280;24125;47.482;8.770;2023-04-02T03:51:51;95757.78;;;11.46;75.97
36386;BME280;24125;47.482;8.770;2023-04-02T03:54:27;95758.81;;;11.41;76.28
36386;BME280;24125;47.482;8.770;2023-04-02T03:57:00;95747.22;;;11.37;75.88
36386;BME280;24125;47.482;8.770;2023-04-02T03:59:35;95749.78;;;11.33;76.08
36386;BME280;24125;47.482;8.770;2023-04-02T04:02:12;95751.28;;;11.31;76.33
36386;BME280;24125;47.482;8.770;2023-04-02T04:04:47;95754.16;;;11.26;75.95
36386;BME280;24125;47.482;8.770;2023-04-02T04:07:27;95757.53;;;11.23;75.42
36386;BME280;24125;47.482;8.770;2023-04-02T04:10:01;95760.44;;;11.18;75.61
36386;BME280;24125;47.482;8.770;2023-04-02T04:12:35;95766.47;;;11.15;75.94
36386;BME280;24125;47.482;8.770;2023-04-02T04:15:13;95770.13;;;11.10;75.99
36386;BME280;24125;47.482;8.770;2023-04-02T04:17:49;95770.47;;;11.09;75.95
36386;BME280;24125;47.482;8.770;2023-04-02T04:20:26;95763.16;;;11.06;76.07
36386;BME280;24125;47.482;8.770;2023-04-02T04:23:09;95762.69;;;11.04;76.07
36386;BME280;24125;47.482;8.770;2023-04-02T04:25:42;95765.38;;;11.04;75.75
36386;BME280;24125;47.482;8.770;2023-04-02T04:28:18;95768.03;;;11.04;75.88
36386;BME280;24125;47.482;8.770;2023-04-02T04:30:55;95771.50;;;11.04;76.40
36386;BME280;24125;47.482;8.770;2023-04-02T04:33:30;95766.94;;;11.05;76.75
36386;BME280;24125;47.482;8.770;2023-04-02T04:36:15;95772.28;;;11.05;76.86
36386;BME280;24125;47.482;8.770;2023-04-02T04:39:03;95768.50;;;11.06;76.63
36386;BME280;24125;47.482;8.770;2023-04-02T04:41:38;95776.94;;;11.08;76.87
36386;BME280;24125;47.482;8.770;2023-04-02T04:44:13;95772.03;;;11.10;76.47
36386;BME280;24125;47.482;8.770;2023-04-02T04:46:48;95776.25;;;11.11;76.41
36386;BME280;24125;47.482;8.770;2023-04-02T04:49:25;95776.25;;;11.11;76.73
36386;BME280;24125;47.482;8.770;2023-04-02T04:52:04;95779.72;;;11.11;76.64
36386;BME280;24125;47.482;8.770;2023-04-02T04:54:40;95785.38;;;11.10;75.96
36386;BME280;24125;47.482;8.770;2023-04-02T04:57:21;95787.63;;;11.08;76.59
36386;BME280;24125;47.482;8.770;2023-04-02T04:59:57;95779.97;;;11.06;76.75
36386;BME280;24125;47.482;8.770;2023-04-02T05:02:31;95782.63;;;11.06;76.75
36386;BME280;24125;47.482;8.770;2023-04-02T05:05:13;95800.56;;;11.06;76.35
36386;BME280;24125;47.482;8.770;2023-04-02T05:07:49;95790.19;;;11.04;76.39
36386;BME280;24125;47.482;8.770;2023-04-02T05:10:24;95801.31;;;11.06;76.43
36386;BME280;24125;47.482;8.770;2023-04-02T05:13:00;95792.53;;;11.06;76.63
36386;BME280;24125;47.482;8.770;2023-04-02T05:15:37;95797.50;;;11.07;76.77
36386;BME280;24125;47.482;8.770;2023-04-02T05:18:16;95799.84;;;11.09;77.09
36386;BME280;24125;47.482;8.770;2023-04-02T05:20:51;95802.53;;;11.09;76.44
36386;BME280;24125;47.482;8.770;2023-04-02T05:23:26;95804.88;;;11.10;76.10
36386;BME280;24125;47.482;8.770;2023-04-02T05:26:02;95811.44;;;11.13;76.33
36386;BME280;24125;47.482;8.770;2023-04-02T05:28:39;95814.56;;;11.15;76.57
36386;BME280;24125;47.482;8.770;2023-04-02T05:31:15;95825.34;;;11.18;77.19
36386;BME280;24125;47.482;8.770;2023-04-02T05:33:50;95820.44;;;11.20;76.96
36386;BME280;24125;47.482;8.770;2023-04-02T05:36:24;95822.09;;;11.25;76.84
36386;BME280;24125;47.482;8.770;2023-04-02T05:38:59;95822.97;;;11.29;76.32
36386;BME280;24125;47.482;8.770;2023-04-02T05:41:34;95819.19;;;11.30;76.59
36386;BME280;24125;47.482;8.770;2023-04-02T05:44:11;95826.19;;;11.34;76.72
36386;BME280;24125;47.482;8.770;2023-04-02T05:46:48;95832.31;;;11.35;76.41
36386;BME280;24125;47.482;8.770;2023-04-02T05:49:23;95837.00;;;11.38;76.30
36386;BME280;24125;47.482;8.770;2023-04-02T05:52:00;95837.44;;;11.40;76.67
36386;BME280;24125;47.482;8.770;2023-04-02T05:54:35;95844.34;;;11.41;76.91
36386;BME280;24125;47.482;8.770;2023-04-02T05:57:12;95844.88;;;11.47;77.21
36386;BME280;24125;47.482;8.770;2023-04-02T05:59:48;95843.84;;;11.51;76.70
36386;BME280;24125;47.482;8.770;2023-04-02T06:02:22;95854.31;;;11.56;77.42
36386;BME280;24125;47.482;8.770;2023-04-02T06:04:58;95850.28;;;11.62;77.99
36386;BME280;24125;47.482;8.770;2023-04-02T06:07:33;95844.34;;;11.69;78.12
36386;BME280;24125;47.482;8.770;2023-04-02T06:10:13;95854.94;;;11.78;77.56
36386;BME280;24125;47.482;8.770;2023-04-02T06:12:51;95849.38;;;11.83;77.67
36386;BME280;24125;47.482;8.770;2023-04-02T06:15:25;95854.91;;;11.90;77.71
36386;BME280;24125;47.482;8.770;2023-04-02T06:17:59;95849.28;;;11.95;77.80
36386;BME280;24125;47.482;8.770;2023-04-02T06:20:32;95855.63;;;12.02;77.36
36386;BME280;24125;47.482;8.770;2023-04-02T06:23:05;95853.50;;;12.08;78.06
36386;BME280;24125;47.482;8.770;2023-04-02T06:25:41;95852.13;;;12.14;78.24
36386;BME280;24125;47.482;8.770;2023-04-02T06:28:19;95857.31;;;12.23;78.43
36386;BME280;24125;47.482;8.770;2023-04-02T06:30:53;95848.69;;;12.29;77.65
36386;BME280;24125;47.482;8.770;2023-04-02T06:33:31;95851.19;;;12.38;77.84
36386;BME280;24125;47.482;8.770;2023-04-02T06:36:04;95860.53;;;12.44;77.19
36386;BME280;24125;47.482;8.770;2023-04-02T06:38:39;95866.41;;;12.50;77.38
36386;BME280;24125;47.482;8.770;2023-04-02T06:41:13;95868.47;;;12.56;77.58
36386;BME280;24125;47.482;8.770;2023-04-02T06:43:51;95873.59;;;12.61;77.32
36386;BME280;24125;47.482;8.770;2023-04-02T06:46:26;95876.78;;;12.67;76.81
36386;BME280;24125;47.482;8.770;2023-04-02T06:49:02;95883.88;;;12.75;76.85
36386;BME280;24125;47.482;8.770;2023-04-02T06:51:38;95889.41;;;12.82;76.75
36386;BME280;24125;47.482;8.770;2023-04-02T06:54:12;95893.47;;;12.92;77.45
36386;BME280;24125;47.482;8.770;2023-04-02T06:56:47;95889.81;;;13.00;77.12
36386;BME280;24125;47.482;8.770;2023-04-02T06:59:22;95887.41;;;13.10;77.51
36386;BME280;24125;47.482;8.770;2023-04-02T07:01:56;95892.28;;;13.20;77.74
36386;BME280;24125;47.482;8.770;2023-04-02T07:04:30;95902.09;;;13.32;77.99
36386;BME280;24125;47.482;8.770;2023-04-02T07:07:03;95903.19;;;13.47;78.08
36386;BME280;24125;47.482;8.770;2023-04-02T07:09:36;95898.56;;;13.63;79.34
36386;BME280;24125;47.482;8.770;2023-04-02T07:12:12;95893.56;;;13.81;80.19
36386;BME280;24125;47.482;8.770;2023-04-02T07:14:46;95892.09;;;14.03;80.75
36386;BME280;24125;47.482;8.770;2023-04-02T07:17:19;95897.09;;;14.23;81.72
36386;BME280;24125;47.482;8.770;2023-04-02T07:19:53;95898.59;;;14.40;80.85
36386;BME280;24125;47.482;8.770;2023-04-02T07:22:26;95909.66;;;14.58;80.47
36386;BME280;24125;47.482;8.770;2023-04-02T07:24:58;95908.00;;;14.72;79.62
36386;BME280;24125;47.482;8.770;2023-04-02T07:27:32;95908.25;;;14.87;78.71
36386;BME280;24125;47.482;8.770;2023-04-02T07:30:07;95906.13;;;14.99;79.62
36386;BME280;24125;47.482;8.770;2023-04-02T07:32:40;95906.75;;;15.12;79.08
36386;BME280;24125;47.482;8.770;2023-04-02T07:35:13;95908.78;;;15.22;79.22
36386;BME280;24125;47.482;8.770;2023-04-02T07:37:46;95915.13;;;15.33;79.11
36386;BME280;24125;47.482;8.770;2023-04-02T07:40:19;95914.16;;;15.45;78.75
36386;BME280;24125;47.482;8.770;2023-04-02T07:42:53;95915.47;;;15.55;77.92
36386;BME280;24125;47.482;8.770;2023-04-02T07:45:27;95922.16;;;15.64;78.09
36386;BME280;24125;47.482;8.770;2023-04-02T07:48:03;95921.09;;;15.72;77.54
36386;BME280;24125;47.482;8.770;2023-04-02T07:50:36;95925.81;;;15.79;77.70
36386;BME280;24125;47.482;8.770;2023-04-02T07:53:12;95924.69;;;15.83;77.84
36386;BME280;24125;47.482;8.770;2023-04-02T07:55:50;95920.16;;;15.88;77.90
36386;BME280;24125;47.482;8.770;2023-04-02T07:58:23;95922.13;;;15.91;75.93
36386;BME280;24125;47.482;8.770;2023-04-02T08:00:57;95923.72;;;15.95;76.57
36386;BME280;24125;47.482;8.770;2023-04-02T08:03:30;95923.72;;;15.95;76.46
36386;BME280;24125;47.482;8.770;2023-04-02T08:06:03;95932.19;;;15.97;74.90
36386;BME280;24125;47.482;8.770;2023-04-02T08:08:36;95927.59;;;15.98;74.81
36386;BME280;24125;47.482;8.770;2023-04-02T08:11:09;95931.44;;;16.00;74.40
36386;BME280;24125;47.482;8.770;2023-04-02T08:13:43;95938.38;;;16.01;75.21
36386;BME280;24125;47.482;8.770;2023-04-02T08:16:17;95935.41;;;16.06;76.53
36386;BME280;24125;47.482;8.770;2023-04-02T08:18:50;95947.34;;;16.09;76.61
36386;BME280;24125;47.482;8.770;2023-04-02T08:21:23;95945.41;;;16.09;76.67
36386;BME280;24125;47.482;8.770;2023-04-02T08:23:56;95944.63;;;16.09;75.81
36386;BME280;24125;47.482;8.770;2023-04-02T08:26:29;95947.34;;;16.09;74.60
36386;BME280;24125;47.482;8.770;2023-04-02T08:29:02;95944.28;;;16.10;75.46
36386;BME280;24125;47.482;8.770;2023-04-02T08:31:36;95951.63;;;16.13;76.22
36386;BME280;24125;47.482;8.770;2023-04-02T08:34:09;95957.88;;;16.21;75.09
36386;BME280;24125;47.482;8.770;2023-04-02T08:36:42;95962.22;;;16.29;73.69
36386;BME280;24125;47.482;8.770;2023-04-02T08:39:15;95959.25;;;16.38;68.35
36386;BME280;24125;47.482;8.770;2023-04-02T08:41:49;95967.44;;;16.48;70.92
36386;BME280;24125;47.482;8.770;2023-04-02T08:44:29;95971.34;;;16.54;73.72
36386;BME280;24125;47.482;8.770;2023-04-02T08:47:08;95974.09;;;16.58;72.36
36386;BME280;24125;47.482;8.770;2023-04-02T08:49:43;95966.03;;;16.58;70.10
36386;BME280;24125;47.482;8.770;2023-04-02T08:52:21;95981.06;;;16.59;71.02
36386;BME280;24125;47.482;8.770;2023-04-02T08:54:55;95984.09;;;16.57;70.64
36386;BME280;24125;47.482;8.770;2023-04-02T08:57:31;95971.78;;;16.56;71.01
36386;BME280;24125;47.482;8.770;2023-04-02T09:00:15;95973.31;;;16.57;71.67
36386;BME280;24125;47.482;8.770;2023-04-02T09:02:56;95976.44;;;16.59;72.56
36386;BME280;24125;47.482;8.770;2023-04-02T09:05:30;95973.84;;;16.67;74.42
36386;BME280;24125;47.482;8.770;2023-04-02T09:08:08;95983.19;;;16.76;75.21
36386;BME280;24125;47.482;8.770;2023-04-02T09:10:48;95984.06;;;16.87;77.02
36386;BME280;24125;47.482;8.770;2023-04-02T09:13:23;95984.16;;;16.98;78.14
36386;BME280;24125;47.482;8.770;2023-04-02T09:15:57;95989.69;;;17.09;77.68
36386;BME280;24125;47.482;8.770;2023-04-02T09:18:34;95998.66;;;17.20;74.84
36386;BME280;24125;47.482;8.770;2023-04-02T09:21:21;96006.81;;;17.30;75.92
36386;BME280;24125;47.482;8.770;2023-04-02T09:23:58;96004.59;;;17.40;74.90
36386;BME280;24125;47.482;8.770;2023-04-02T09:26:34;95999.63;;;17.45;71.25
36386;BME280;24125;47.482;8.770;2023-04-02T09:29:25;96007.41;;;17.54;73.50
36386;BME280;24125;47.482;8.770;2023-04-02T09:32:01;96012.09;;;17.60;73.27
36386;BME280;24125;47.482;8.770;2023-04-02T09:34:39;96006.38;;;17.65;74.61
36386;BME280;24125;47.482;8.770;2023-04-02T09:37:13;96009.50;;;17.75;73.52
36386;BME280;24125;47.482;8.770;2023-04-02T09:39:47;96012.25;;;17.82;73.97
36386;BME280;24125;47.482;8.770;2023-04-02T09:42:30;96016.59;;;17.90;72.53
36386;BME280;24125;47.482;8.770;2023-04-02T09:45:16;96017.78;;;17.96;72.65
36386;BME280;24125;47.482;8.770;2023-04-02T09:47:51;96022.06;;;18.04;71.87
36386;BME280;24125;47.482;8.770;2023-04-02T09:50:28;96029.03;;;18.08;70.27
36386;BME280;24125;47.482;8.770;2023-04-02T09:53:15;96030.22;;;18.11;71.50
36386;BME280;24125;47.482;8.770;2023-04-02T09:56:07;96024.03;;;18.10;70.95
36386;BME280;24125;47.482;8.770;2023-04-02T09:58:41;96023.25;;;18.10;67.35
36386;BME280;24125;47.482;8.770;2023-04-02T10:01:25;96024.41;;;18.09;70.29
36386;BME280;24125;47.482;8.770;2023-04-02T10:03:59;96024.78;;;18.07;70.50
36386;BME280;24125;47.482;8.770;2023-04-02T10:06:35;96024.03;;;18.07;70.89
36386;BME280;24125;47.482;8.770;2023-04-02T10:09:18;96029.81;;;18.09;71.78
36386;BME280;24125;47.482;8.770;2023-04-02T10:11:51;96032.53;;;18.13;72.79
36386;BME280;24125;47.482;8.770;2023-04-02T10:14:27;96033.31;;;18.17;72.31
36386;BME280;24125;47.482;8.770;2023-04-02T10:17:03;96040.31;;;18.21;70.06
36386;BME280;24125;47.482;8.770;2023-04-02T10:19:39;96045.34;;;18.26;69.01
36386;BME280;24125;47.482;8.770;2023-04-02T10:22:16;96037.66;;;18.28;70.91
36386;BME280;24125;47.482;8.770;2023-04-02T10:24:49;96033.06;;;18.32;65.73
36386;BME280;24125;47.482;8.770;2023-04-02T10:27:23;96036.13;;;18.34;71.34
36386;BME280;24125;47.482;8.770;2023-04-02T10:30:08;96043.13;;;18.39;70.96
36386;BME280;24125;47.482;8.770;2023-04-02T10:32:43;96048.56;;;18.46;69.44
36386;BME280;24125;47.482;8.770;2023-04-02T10:35:20;96040.47;;;18.53;69.48
36386;BME280;24125;47.482;8.770;2023-04-02T10:40:58;96048.69;;;18.71;66.55
36386;BME280;24125;47.482;8.770;2023-04-02T10:43:42;96048.34;;;18.76;67.39
36386;BME280;24125;47.482;8.770;2023-04-02T10:46:19;96056.06;;;18.81;70.13
36386;BME280;24125;47.482;8.770;2023-04-02T10:48:59;96047.19;;;18.80;63.31
36386;BME280;24125;47.482;8.770;2023-04-02T10:51:36;96057.63;;;18.82;65.48
36386;BME280;24125;47.482;8.770;2023-04-02T10:54:31;96056.47;;;18.83;68.14
36386;BME280;24125;47.482;8.770;2023-04-02T10:57:08;96054.19;;;18.85;69.58
36386;BME280;24125;47.482;8.770;2023-04-02T10:59:44;96051.47;;;18.85;59.62
36386;BME280;24125;47.482;8.770;2023-04-02T11:05:11;96061.16;;;18.97;70.74
36386;BME280;24125;47.482;8.770;2023-04-02T11:07:54;96045.31;;;18.99;67.21
36386;BME280;24125;47.482;8.770;2023-04-02T11:10:29;96060.78;;;19.02;71.46
36386;BME280;24125;47.482;8.770;2023-04-02T11:13:06;96066.56;;;19.04;68.71
36386;BME280;24125;47.482;8.770;2023-04-02T11:15:43;96067.34;;;19.04;66.09
36386;BME280;24125;47.482;8.770;2023-04-02T11:18:21;96070.44;;;19.03;66.67
36386;BME280;24125;47.482;8.770;2023-04-02T11:20:55;96066.97;;;18.99;65.27
36386;BME280;24125;47.482;8.770;2023-04-02T11:23:32;96071.19;;;18.96;67.59
36386;BME280;24125;47.482;8.770;2023-04-02T11:29:10;96063.06;;;18.89;68.22
36386;BME280;24125;47.482;8.770;2023-04-02T11:31:45;96060.72;;;18.88;68.78
36386;BME280;24125;47.482;8.770;2023-04-02T11:37:10;96058.03;;;18.88;63.66
36386;BME280;24125;47.482;8.770;2023-04-02T11:40:00;96062.31;;;18.92;67.89
36386;BME280;24125;47.482;8.770;2023-04-02T11:42:36;96060.75;;;18.95;66.24
36386;BME280;24125;47.482;8.770;2023-04-02T11:48:27;96060.38;;;18.96;66.90
36386;BME280;24125;47.482;8.770;2023-04-02T11:51:01;96062.69;;;18.98;68.57
36386;BME280;24125;47.482;8.770;2023-04-02T11:53:43;96061.94;;;18.97;68.96
36386;BME280;24125;47.482;8.770;2023-04-02T11:56:17;96065.41;;;18.98;70.47
36386;BME280;24125;47.482;8.770;2023-04-02T11:58:58;96069.66;;;18.99;68.59
36386;BME280;24125;47.482;8.770;2023-04-02T12:04:52;96075.84;;;19.03;67.28
36386;BME280;24125;47.482;8.770;2023-04-02T12:07:36;96069.28;;;19.04;67.84
36386;BME280;24125;47.482;8.770;2023-04-02T12:10:23;96072.00;;;19.00;66.35
36386;BME280;24125;47.482;8.770;2023-04-02T12:12:58;96074.28;;;18.95;67.95
36386;BME280;24125;47.482;8.770;2023-04-02T12:15:32;96069.66;;;18.92;66.93
36386;BME280;24125;47.482;8.770;2023-04-02T12:18:10;96070.81;;;18.91;69.93
36386;BME280;24125;47.482;8.770;2023-04-02T12:20:47;96063.81;;;18.86;66.85
36386;BME280;24125;47.482;8.770;2023-04-02T12:23:20;96065.75;;;18.85;70.49
36386;BME280;24125;47.482;8.770;2023-04-02T12:25:55;96065.34;;;18.80;64.77
36386;BME280;24125;47.482;8.770;2023-04-02T12:28:29;96066.09;;;18.77;64.37
36386;BME280;24125;47.482;8.770;2023-04-02T12:31:08;96068.03;;;18.73;64.08
36386;BME280;24125;47.482;8.770;2023-04-02T12:33:44;96062.22;;;18.71;65.26
36386;BME280;24125;47.482;8.770;2023-04-02T12:36:21;96065.28;;;18.66;66.69
36386;BME280;24125;47.482;8.770;2023-04-02T12:38:55;96069.56;;;18.67;69.14
36386;BME280;24125;47.482;8.770;2023-04-02T12:41:29;96057.16;;;18.62;67.06
36386;BME280;24125;47.482;8.770;2023-04-02T12:44:03;96059.84;;;18.62;68.42
36386;BME280;24125;47.482;8.770;2023-04-02T12:46:37;96068.34;;;18.61;68.14
36386;BME280;24125;47.482;8.770;2023-04-02T12:49:13;96066.41;;;18.58;68.91
36386;BME280;24125;47.482;8.770;2023-04-02T12:51:54;96069.81;;;18.51;67.22
36386;BME280;24125;47.482;8.770;2023-04-02T12:54:27;96060.88;;;18.43;60.84
36386;BME280;24125;47.482;8.770;2023-04-02T12:59:56;96075.06;;;18.26;65.55
36386;BME280;24125;47.482;8.770;2023-04-02T13:02:30;96065.38;;;18.15;68.27
36386;BME280;24125;47.482;8.770;2023-04-02T13:05:04;96060.25;;;18.02;66.73
36386;BME280;24125;47.482;8.770;2023-04-02T13:07:38;96066.34;;;17.89;65.73
36386;BME280;24125;47.482;8.770;2023-04-02T13:10:21;96067.78;;;17.76;68.30
36386;BME280;24125;47.482;8.770;2023-04-02T13:12:56;96061.47;;;17.61;66.82
36386;BME280;24125;47.482;8.770;2023-04-02T13:15:30;96072.16;;;17.50;65.59
36386;BME280;24125;47.482;8.770;2023-04-02T13:18:05;96068.63;;;17.43;65.03
36386;BME280;24125;47.482;8.770;2023-04-02T13:20:39;96075.50;;;17.37;64.94
36386;BME280;24125;47.482;8.770;2023-04-02T13:23:23;96072.34;;;17.31;67.04
36386;BME280;24125;47.482;8.770;2023-04-02T13:25:57;96073.44;;;17.23;64.14
36386;BME280;24125;47.482;8.770;2023-04-02T13:28:30;96074.53;;;17.18;68.51
36386;BME280;24125;47.482;8.770;2023-04-02T13:31:03;96077.56;;;17.13;65.81
36386;BME280;24125;47.482;8.770;2023-04-02T13:33:36;96070.59;;;17.09;67.62
36386;BME280;24125;47.482;8.770;2023-04-02T13:36:10;96071.31;;;17.06;71.17
36386;BME280;24125;47.482;8.770;2023-04-02T13:38:45;96067.06;;;17.05;68.26
36386;BME280;24125;47.482;8.770;2023-04-02T13:41:19;96059.31;;;17.00;67.53
36386;BME280;24125;47.482;8.770;2023-04-02T13:43:53;96076.22;;;16.96;67.89
36386;BME280;24125;47.482;8.770;2023-04-02T13:46:28;96069.66;;;16.94;68.60
36386;BME280;24125;47.482;8.770;2023-04-02T13:49:01;96072.31;;;16.90;67.47
36386;BME280;24125;47.482;8.770;2023-04-02T13:51:35;96068.41;;;16.88;66.00
36386;BME280;24125;47.482;8.770;2023-04-02T13:54:13;96076.91;;;16.86;68.83
36386;BME280;24125;47.482;8.770;2023-04-02T13:56:47;96070.31;;;16.84;68.30
36386;BME280;24125;47.482;8.770;2023-04-02T13:59:20;96066.44;;;16.81;69.94
36386;BME280;24125;47.482;8.770;2023-04-02T14:01:53;96068.34;;;16.81;67.87
36386;BME280;24125;47.482;8.770;2023-04-02T14:04:30;96060.63;;;16.79;69.05
36386;BME280;24125;47.482;8.770;2023-04-02T14:07:17;96064.16;;;16.83;71.42
36386;BME280;24125;47.482;8.770;2023-04-02T14:10:00;96065.34;;;16.86;71.79
36386;BME280;24125;47.482;8.770;2023-04-02T14:12:39;96065.00;;;16.91;70.07
36386;BME280;24125;47.482;8.770;2023-04-02T14:15:24;96067.00;;;16.97;70.34
36386;BME280;24125;47.482;8.770;2023-04-02T14:18:04;96073.63;;;17.04;71.01